createdAt,value
2019-06-08T00:02:18.461Z,16.90
2019-06-08T00:04:48.150Z,16.90
2019-06-08T00:07:18.817Z,16.90
2019-06-08T00:09:48.861Z,16.90
2019-06-08T00:12:19.006Z,16.90
2019-06-08T00:14:48.347Z,16.90
2019-06-08T00:17:32.515Z,16.90
2019-06-08T00:19:48.903Z,16.80
2019-06-08T00:22:18.159Z,16.80
2019-06-08T00:24:48.083Z,16.80
2019-06-08T00:27:20.194Z,16.80
2019-06-08T00:29:48.725Z,16.70
2019-06-08T00:32:18.489Z,16.70
2019-06-08T00:34:48.513Z,16.70
2019-06-08T00:37:18.766Z,16.70
2019-06-08T00:39:48.384Z,16.70
2019-06-08T00:42:19.179Z,16.70
2019-06-08T00:44:49.138Z,16.60
2019-06-08T00:47:18.543Z,16.60
2019-06-08T00:49:47.796Z,16.50
2019-06-08T00:52:17.060Z,16.50
2019-06-08T00:54:46.334Z,16.50
2019-06-08T00:57:15.630Z,16.40
2019-06-08T00:59:45.934Z,16.40
2019-06-08T01:02:15.666Z,16.30
2019-06-08T01:04:45.202Z,16.30
2019-06-08T01:07:14.568Z,16.30
2019-06-08T01:09:43.857Z,16.30
2019-06-08T01:12:15.449Z,16.30
2019-06-08T01:14:44.726Z,16.30
2019-06-08T01:17:14.483Z,16.20
2019-06-08T01:19:43.841Z,16.20
2019-06-08T01:22:13.148Z,16.20
2019-06-08T01:24:43.050Z,16.10
2019-06-08T01:27:12.584Z,16.10
2019-06-08T01:29:41.855Z,16.00
2019-06-08T01:32:11.216Z,16.10
2019-06-08T01:34:40.518Z,16.10
2019-06-08T01:37:10.600Z,16.10
2019-06-08T01:39:40.207Z,16.00
2019-06-08T01:42:09.547Z,16.10
2019-06-08T01:44:39.092Z,16.00
2019-06-08T01:47:08.697Z,16.10
2019-06-08T01:49:37.959Z,16.10
2019-06-08T01:52:07.505Z,16.10
2019-06-08T01:54:39.159Z,16.10
2019-06-08T01:57:08.428Z,16.10
2019-06-08T01:59:37.716Z,16.00
2019-06-08T02:02:07.056Z,16.10
2019-06-08T02:04:36.788Z,16.10
2019-06-08T02:07:06.319Z,16.10
2019-06-08T02:09:35.690Z,16.10
2019-06-08T02:12:05.100Z,16.10
2019-06-08T02:14:35.421Z,16.10
2019-06-08T02:17:05.208Z,16.10
2019-06-08T02:19:34.841Z,16.10
2019-06-08T02:22:04.241Z,16.00
2019-06-08T02:24:35.367Z,16.00
2019-06-08T02:27:04.819Z,16.00
2019-06-08T02:29:35.766Z,16.00
2019-06-08T02:32:05.335Z,16.00
2019-06-08T02:34:38.522Z,16.00
2019-06-08T02:37:08.839Z,16.00
2019-06-08T02:39:39.877Z,16.00
2019-06-08T02:42:09.427Z,16.00
2019-06-08T02:44:40.100Z,16.00
2019-06-08T02:47:09.927Z,15.90
2019-06-08T02:49:39.846Z,15.90
2019-06-08T02:52:10.363Z,15.90
2019-06-08T02:54:41.157Z,15.90
2019-06-08T02:58:33.602Z,15.90
2019-06-08T03:01:04.776Z,15.90
2019-06-08T03:03:40.125Z,15.90
2019-06-08T03:06:09.185Z,15.80
2019-06-08T03:08:43.521Z,15.80
2019-06-08T03:11:11.080Z,15.80
2019-06-08T03:13:42.484Z,15.70
2019-06-08T03:16:12.364Z,15.70
2019-06-08T03:18:42.725Z,15.70
2019-06-08T03:21:12.815Z,15.60
2019-06-08T03:23:43.450Z,15.70
2019-06-08T03:26:13.319Z,15.60
2019-06-08T03:28:44.314Z,15.60
2019-06-08T03:31:13.868Z,15.60
2019-06-08T03:33:53.335Z,15.60
2019-06-08T03:36:14.137Z,15.60
2019-06-08T03:38:44.703Z,15.60
2019-06-08T03:41:14.226Z,15.60
2019-06-08T03:43:43.603Z,15.60
2019-06-08T03:46:13.205Z,15.60
2019-06-08T03:48:45.766Z,15.60
2019-06-08T03:51:14.042Z,15.60
2019-06-08T03:53:46.462Z,15.60
2019-06-08T03:56:15.316Z,15.60
2019-06-08T03:58:47.567Z,15.50
2019-06-08T04:01:15.923Z,15.60
2019-06-08T04:03:46.349Z,15.50
2019-06-08T04:10:09.530Z,15.50
2019-06-08T04:12:40.023Z,15.50
2019-06-08T04:15:12.661Z,15.50
2019-06-08T04:17:43.984Z,15.40
2019-06-08T04:20:13.964Z,15.40
2019-06-08T04:22:47.120Z,15.40
2019-06-08T04:25:17.514Z,15.40
2019-06-08T04:27:47.169Z,15.40
2019-06-08T04:30:18.647Z,15.40
2019-06-08T04:32:49.763Z,15.40
2019-06-08T04:35:19.356Z,15.40
2019-06-08T04:37:50.688Z,15.40
2019-06-08T04:40:20.380Z,15.40
2019-06-08T04:42:51.100Z,15.30
2019-06-08T04:45:24.591Z,15.30
2019-06-08T04:47:53.801Z,15.30
2019-06-08T04:50:24.188Z,15.30
2019-06-08T04:52:53.705Z,15.30
2019-06-08T04:55:23.241Z,15.30
2019-06-08T04:57:52.504Z,15.30
2019-06-08T05:00:21.904Z,15.30
2019-06-08T05:02:51.402Z,15.30
2019-06-08T05:05:20.898Z,15.30
2019-06-08T05:07:50.477Z,15.30
2019-06-08T05:10:19.865Z,15.40
2019-06-08T05:12:50.236Z,15.40
2019-06-08T05:15:19.687Z,15.50
2019-06-08T05:17:49.684Z,15.50
2019-06-08T05:20:19.641Z,15.50
2019-06-08T05:22:49.884Z,15.50
2019-06-08T05:25:19.338Z,15.50
2019-06-08T05:27:49.565Z,15.50
2019-06-08T05:30:20.604Z,15.50
2019-06-08T05:32:50.254Z,15.50
2019-06-08T05:35:19.836Z,15.50
2019-06-08T05:37:49.840Z,15.50
2019-06-08T05:40:19.586Z,15.50
2019-06-08T05:42:50.002Z,15.60
2019-06-08T05:45:19.661Z,15.70
2019-06-08T05:47:50.081Z,15.80
2019-06-08T05:50:19.589Z,15.90
2019-06-08T05:52:50.194Z,15.90
2019-06-08T05:55:19.705Z,15.90
2019-06-08T05:57:50.441Z,15.80
2019-06-08T06:00:19.962Z,15.80
2019-06-08T06:02:49.347Z,15.80
2019-06-08T06:05:19.345Z,15.90
2019-06-08T06:07:49.017Z,15.80
2019-06-08T06:10:18.570Z,15.90
2019-06-08T06:12:49.067Z,16.00
2019-06-08T06:15:19.214Z,16.20
2019-06-08T06:17:49.856Z,16.40
2019-06-08T06:20:19.616Z,16.50
2019-06-08T06:22:49.478Z,16.50
2019-06-08T06:25:18.897Z,16.40
2019-06-08T06:27:49.547Z,16.40
2019-06-08T06:30:19.734Z,16.40
2019-06-08T06:32:50.186Z,16.40
2019-06-08T06:35:19.695Z,16.40
2019-06-08T06:37:50.251Z,16.30
2019-06-08T06:40:19.610Z,16.30
2019-06-08T06:42:50.053Z,16.30
2019-06-08T06:45:19.861Z,16.30
2019-06-08T06:47:50.458Z,16.50
2019-06-08T06:50:20.090Z,16.60
2019-06-08T06:52:50.761Z,16.60
2019-06-08T06:55:20.066Z,16.60
2019-06-08T06:57:49.593Z,16.90
2019-06-08T07:00:29.976Z,17.00
2019-06-08T07:02:59.835Z,17.20
2019-06-08T07:05:29.131Z,17.00
2019-06-08T07:07:58.560Z,16.90
2019-06-08T07:10:28.182Z,16.70
2019-06-08T07:12:57.562Z,16.80
2019-06-08T07:15:28.579Z,16.90
2019-06-08T07:17:58.709Z,16.90
2019-06-08T07:20:28.196Z,16.80
2019-06-08T07:22:58.736Z,16.80
2019-06-08T07:25:28.432Z,16.80
2019-06-08T07:27:59.336Z,16.60
2019-06-08T07:30:28.826Z,16.70
2019-06-08T07:32:59.230Z,16.80
2019-06-08T07:35:29.031Z,16.90
2019-06-08T07:37:59.795Z,17.00
2019-06-08T07:40:29.215Z,17.30
2019-06-08T07:43:00.426Z,17.50
2019-06-08T07:45:30.092Z,17.50
2019-06-08T07:48:00.609Z,17.60
2019-06-08T07:50:30.461Z,17.70
2019-06-08T07:53:00.094Z,17.90
2019-06-08T07:55:29.698Z,18.00
2019-06-08T07:58:00.355Z,18.00
2019-06-08T08:00:29.733Z,18.00
2019-06-08T08:02:59.067Z,17.90
2019-06-08T08:05:29.702Z,17.90
2019-06-08T08:07:59.114Z,17.80
2019-06-08T08:10:28.700Z,17.80
2019-06-08T08:13:04.419Z,17.90
2019-06-08T08:15:33.972Z,18.00
2019-06-08T08:18:03.459Z,18.20
2019-06-08T08:20:32.761Z,18.40
2019-06-08T08:23:05.891Z,18.20
2019-06-08T08:25:34.776Z,18.50
2019-06-08T08:28:04.307Z,18.60
2019-06-08T08:30:34.045Z,18.50
2019-06-08T08:33:03.683Z,18.60
2019-06-08T08:35:44.906Z,18.60
2019-06-08T08:38:17.840Z,18.40
2019-06-08T08:40:51.143Z,18.40
2019-06-08T08:43:28.008Z,18.10
2019-06-08T08:46:01.815Z,18.00
2019-06-08T08:48:37.661Z,18.00
2019-06-08T08:51:08.602Z,18.00
2019-06-08T08:53:38.082Z,17.90
2019-06-08T08:56:07.483Z,17.80
2019-06-08T08:58:39.821Z,17.80
2019-06-08T09:01:12.148Z,17.70
2019-06-08T09:03:41.552Z,17.50
2019-06-08T09:06:44.234Z,17.50
2019-06-08T09:09:13.609Z,17.40
2019-06-08T09:11:51.596Z,17.40
2019-06-08T09:14:22.661Z,17.40
2019-06-08T09:16:53.593Z,17.40
2019-06-08T09:19:22.971Z,17.50
2019-06-08T09:21:53.027Z,17.60
2019-06-08T09:24:39.365Z,17.80
2019-06-08T09:27:23.052Z,17.90
2019-06-08T09:30:39.984Z,18.10
2019-06-08T09:33:09.534Z,18.10
2019-06-08T09:35:38.886Z,18.20
2019-06-08T09:38:10.794Z,18.40
2019-06-08T09:40:39.384Z,18.60
2019-06-08T09:43:12.885Z,18.80
2019-06-08T09:45:42.026Z,19.00
2019-06-08T09:48:11.431Z,18.90
2019-06-08T09:50:40.719Z,19.10
2019-06-08T09:53:23.771Z,19.30
2019-06-08T09:55:44.024Z,19.30
2019-06-08T09:58:13.643Z,19.30
2019-06-08T10:00:54.685Z,19.10
2019-06-08T10:03:33.125Z,19.00
2019-06-08T10:06:23.820Z,18.90
2019-06-08T10:09:04.735Z,18.90
2019-06-08T10:11:28.782Z,19.00
2019-06-08T10:14:03.703Z,19.00
2019-06-08T10:16:32.917Z,19.10
2019-06-08T10:19:05.301Z,19.20
2019-06-08T10:21:33.750Z,19.30
2019-06-08T10:24:05.138Z,19.60
2019-06-08T10:26:34.513Z,19.90
2019-06-08T10:29:05.406Z,20.20
2019-06-08T10:31:41.801Z,20.30
2019-06-08T10:34:10.595Z,20.10
2019-06-08T10:36:38.300Z,20.00
2019-06-08T10:39:11.530Z,19.90
2019-06-08T10:41:39.492Z,20.10
2019-06-08T10:44:14.085Z,20.10
2019-06-08T10:46:40.636Z,20.20
2019-06-08T10:49:14.362Z,20.20
2019-06-08T10:51:41.314Z,20.20
2019-06-08T10:54:11.492Z,20.40
2019-06-08T10:56:41.095Z,20.60
2019-06-08T10:59:12.339Z,20.80
2019-06-08T11:01:41.704Z,20.80
2019-06-08T11:04:11.406Z,20.60
2019-06-08T11:06:40.681Z,20.70
2019-06-08T11:09:13.226Z,21.00
2019-06-08T11:11:41.264Z,21.20
2019-06-08T11:14:12.799Z,21.20
2019-06-08T11:16:41.952Z,20.80
2019-06-08T11:19:13.781Z,20.90
2019-06-08T11:21:42.966Z,20.70
2019-06-08T11:24:23.672Z,20.70
2019-06-08T11:26:44.553Z,20.80
2019-06-08T11:29:14.263Z,20.80
2019-06-08T11:31:43.915Z,20.80
2019-06-08T11:34:13.588Z,20.90
2019-06-08T11:36:43.231Z,21.10
2019-06-08T11:39:12.950Z,21.20
2019-06-08T11:41:42.786Z,21.20
2019-06-08T11:44:14.766Z,21.30
2019-06-08T11:46:44.326Z,21.20
2019-06-08T11:49:15.311Z,21.10
2019-06-08T11:51:44.685Z,21.10
2019-06-08T11:54:29.593Z,21.20
2019-06-08T11:56:48.221Z,21.00
2019-06-08T11:59:18.817Z,21.00
2019-06-08T12:01:50.430Z,21.20
2019-06-08T12:04:19.176Z,21.00
2019-06-08T12:06:48.799Z,21.00
2019-06-08T12:09:18.878Z,21.20
2019-06-08T12:11:48.632Z,21.20
2019-06-08T12:14:19.557Z,21.20
2019-06-08T12:16:48.875Z,21.20
2019-06-08T12:19:20.912Z,21.00
2019-06-08T12:21:49.851Z,20.90
2019-06-08T12:24:19.689Z,20.90
2019-06-08T12:26:54.795Z,21.10
2019-06-08T12:29:20.706Z,21.20
2019-06-08T12:31:50.318Z,21.20
2019-06-08T12:34:19.943Z,21.10
2019-06-08T12:36:51.335Z,20.90
2019-06-08T12:39:23.204Z,21.00
2019-06-08T12:41:53.534Z,21.00
2019-06-08T12:44:26.809Z,21.00
2019-06-08T12:46:55.438Z,21.00
2019-06-08T12:49:25.153Z,21.10
2019-06-08T12:51:54.411Z,21.20
2019-06-08T12:54:24.234Z,21.10
2019-06-08T12:56:53.851Z,21.00
2019-06-08T12:59:23.235Z,21.00
2019-06-08T13:01:52.875Z,20.80
2019-06-08T13:04:23.884Z,20.60
2019-06-08T13:06:53.721Z,20.60
2019-06-08T13:09:30.010Z,20.60
2019-06-08T13:12:00.707Z,20.70
2019-06-08T13:14:30.423Z,20.90
2019-06-08T13:17:01.137Z,21.30
2019-06-08T13:19:31.271Z,21.50
2019-06-08T13:22:05.545Z,21.60
2019-06-08T13:24:37.504Z,21.40
2019-06-08T13:27:06.762Z,21.20
2019-06-08T13:29:36.829Z,21.50
2019-06-08T13:32:07.831Z,21.50
2019-06-08T13:34:38.812Z,21.50
2019-06-08T13:37:11.481Z,21.40
2019-06-08T13:39:45.775Z,21.50
2019-06-08T13:42:22.950Z,21.40
2019-06-08T13:44:57.795Z,21.20
2019-06-08T13:47:30.247Z,20.90
2019-06-08T13:50:00.352Z,20.80
2019-06-08T13:52:38.291Z,20.70
2019-06-08T13:55:11.288Z,20.80
2019-06-08T13:57:41.967Z,21.00
2019-06-08T14:00:17.911Z,21.00
2019-06-08T14:02:49.411Z,21.00
2019-06-08T14:07:59.052Z,21.40
2019-06-08T14:10:40.146Z,21.30
2019-06-08T14:13:11.436Z,21.10
2019-06-08T14:15:41.196Z,20.90
2019-06-08T14:18:10.698Z,20.90
2019-06-08T14:20:40.337Z,21.00
2019-06-08T14:23:10.191Z,21.30
2019-06-08T14:25:50.171Z,21.50
2019-06-08T14:28:11.937Z,21.70
2019-06-08T14:30:41.899Z,21.90
2019-06-08T14:33:11.835Z,22.00
2019-06-08T14:35:42.330Z,21.90
2019-06-08T14:38:11.924Z,21.80
2019-06-08T14:40:41.426Z,21.70
2019-06-08T14:43:10.971Z,21.40
2019-06-08T14:45:40.608Z,21.10
2019-06-08T14:50:48.045Z,20.60
2019-06-08T14:53:20.424Z,20.50
2019-06-08T14:56:04.905Z,20.40
2019-06-08T14:58:24.014Z,20.20
2019-06-08T15:00:53.765Z,20.50
2019-06-08T15:03:23.819Z,20.90
2019-06-08T15:05:53.173Z,21.10
2019-06-08T15:08:23.609Z,21.30
2019-06-08T15:10:53.350Z,21.50
2019-06-08T15:13:23.511Z,21.60
2019-06-08T15:15:53.900Z,21.60
2019-06-08T15:18:24.083Z,21.60
2019-06-08T15:20:54.237Z,21.60
2019-06-08T15:23:24.839Z,22.30
2019-06-08T15:25:54.831Z,23.40
2019-06-08T15:28:24.667Z,24.10
2019-06-08T15:30:59.886Z,24.90
2019-06-08T15:36:02.529Z,24.50
2019-06-08T15:38:33.435Z,24.70
2019-06-08T15:41:03.429Z,24.30
2019-06-08T15:43:36.849Z,23.20
2019-06-08T15:46:04.707Z,22.50
2019-06-08T15:48:34.286Z,22.30
2019-06-08T15:51:03.825Z,22.30
2019-06-08T15:53:34.207Z,22.50
2019-06-08T15:56:04.035Z,23.00
2019-06-08T15:58:34.983Z,23.90
2019-06-08T16:01:05.653Z,24.40
2019-06-08T16:03:35.358Z,24.70
2019-06-08T16:06:05.298Z,24.00
2019-06-08T16:08:37.895Z,23.60
2019-06-08T16:11:09.208Z,22.90
2019-06-08T16:13:38.680Z,22.30
2019-06-08T16:16:08.170Z,22.30
2019-06-08T16:18:37.962Z,22.40
2019-06-08T16:21:07.831Z,22.20
2019-06-08T16:23:38.704Z,22.30
2019-06-08T16:26:08.197Z,22.30
2019-06-08T16:28:38.656Z,22.10
2019-06-08T16:31:08.384Z,22.00
2019-06-08T16:38:43.108Z,21.70
2019-06-08T16:43:41.989Z,21.20
2019-06-08T16:46:12.327Z,21.10
2019-06-08T16:48:42.748Z,20.90
2019-06-08T16:51:13.402Z,20.70
2019-06-08T16:53:42.962Z,20.60
2019-06-08T16:56:12.605Z,20.40
2019-06-08T16:58:41.946Z,20.30
2019-06-08T17:01:12.387Z,20.20
2019-06-08T17:03:43.001Z,20.10
2019-06-08T17:06:12.457Z,20.10
2019-06-08T17:08:42.177Z,20.10
2019-06-08T17:11:12.489Z,20.20
2019-06-08T17:13:42.757Z,20.10
2019-06-08T17:16:12.681Z,20.10
2019-06-08T17:18:46.795Z,20.00
2019-06-08T17:21:16.738Z,20.00
2019-06-08T17:23:46.720Z,19.80
2019-06-08T17:26:16.645Z,19.80
2019-06-08T17:28:48.215Z,19.80
2019-06-08T17:31:21.368Z,19.60
2019-06-08T17:33:50.922Z,19.30
2019-06-08T17:36:21.089Z,18.60
2019-06-08T17:38:50.967Z,18.20
2019-06-08T17:41:20.608Z,18.10
2019-06-08T17:43:50.031Z,18.10
2019-06-08T17:46:19.909Z,18.30
2019-06-08T17:48:49.582Z,18.80
2019-06-08T17:51:19.288Z,19.20
2019-06-08T17:53:49.193Z,19.60
2019-06-08T17:56:19.369Z,19.80
2019-06-08T17:58:48.711Z,19.70
2019-06-08T18:01:18.970Z,19.60
2019-06-08T18:03:48.364Z,19.40
2019-06-08T18:06:18.061Z,19.00
2019-06-08T18:08:48.128Z,18.90
2019-06-08T18:11:17.807Z,18.70
2019-06-08T18:13:48.364Z,18.50
2019-06-08T18:16:21.295Z,18.40
2019-06-08T18:18:50.714Z,18.10
2019-06-08T18:21:21.044Z,18.20
2019-06-08T18:23:50.843Z,18.10
2019-06-08T18:26:20.425Z,18.00
2019-06-08T18:28:50.119Z,17.90
2019-06-08T18:31:19.803Z,18.00
2019-06-08T18:33:50.355Z,17.90
2019-06-08T18:38:49.021Z,17.80
2019-06-08T18:41:18.732Z,17.90
2019-06-08T18:43:52.394Z,17.90
2019-06-08T18:46:20.089Z,17.80
2019-06-08T18:48:49.716Z,17.80
2019-06-08T18:51:19.184Z,17.70
2019-06-08T18:54:06.800Z,17.70
2019-06-08T18:56:19.998Z,17.70
2019-06-08T18:58:53.525Z,17.60
2019-06-08T19:03:57.908Z,17.60
2019-06-08T19:06:27.955Z,17.60
2019-06-08T19:08:58.163Z,17.50
2019-06-08T19:11:28.648Z,17.50
2019-06-08T19:13:58.193Z,17.40
2019-06-08T19:16:28.479Z,17.40
2019-06-08T19:18:58.342Z,17.30
2019-06-08T19:21:28.503Z,17.30
2019-06-08T19:23:58.522Z,17.30
2019-06-08T19:26:28.293Z,17.30
2019-06-08T19:28:58.010Z,17.30
2019-06-08T19:31:27.750Z,17.30
2019-06-08T19:33:58.100Z,17.20
2019-06-08T19:36:28.459Z,17.30
2019-06-08T19:39:00.359Z,17.30
2019-06-08T19:41:30.695Z,17.30
2019-06-08T19:44:07.409Z,17.30
2019-06-08T19:46:38.169Z,17.30
2019-06-08T19:49:09.047Z,17.20
2019-06-08T19:51:40.254Z,17.10
2019-06-08T19:54:10.877Z,17.00
2019-06-08T19:56:41.792Z,17.00
2019-06-08T19:59:11.777Z,16.90
2019-06-08T20:01:41.543Z,16.90
2019-06-08T20:04:11.506Z,16.80
2019-06-08T20:06:41.180Z,16.70
2019-06-08T20:09:10.592Z,16.70
2019-06-08T20:11:44.231Z,16.60
2019-06-08T20:14:14.612Z,16.60
2019-06-08T20:16:44.716Z,16.50
2019-06-08T20:19:17.579Z,16.50
2019-06-08T20:21:49.835Z,16.50
2019-06-08T20:24:18.603Z,16.40
2019-06-08T20:26:52.644Z,16.40
2019-06-08T20:29:20.254Z,16.30
2019-06-08T20:31:51.450Z,16.30
2019-06-08T20:34:21.295Z,16.30
2019-06-08T20:36:50.821Z,16.20
2019-06-08T20:39:20.144Z,16.20
2019-06-08T20:41:51.885Z,16.10
2019-06-08T20:44:21.506Z,16.10
2019-06-08T20:46:52.742Z,16.10
2019-06-08T20:49:22.460Z,16.00
2019-06-08T20:51:52.553Z,16.10
2019-06-08T20:54:22.194Z,16.00
2019-06-08T20:56:52.372Z,16.00
2019-06-08T20:59:29.849Z,15.90
2019-06-08T21:01:55.423Z,15.90
2019-06-08T21:04:27.492Z,15.80
2019-06-08T21:06:57.381Z,15.80
2019-06-08T21:09:27.839Z,15.80
2019-06-08T21:11:58.794Z,15.70
2019-06-08T21:14:28.456Z,15.70
2019-06-08T21:16:58.759Z,15.60
2019-06-08T21:19:28.546Z,15.60
2019-06-08T21:21:59.388Z,15.60
2019-06-08T21:24:28.914Z,15.50
2019-06-08T21:27:00.713Z,15.50
2019-06-08T21:29:46.910Z,15.40
2019-06-08T21:32:02.603Z,15.40
2019-06-08T21:34:33.033Z,15.40
2019-06-08T21:37:02.458Z,15.40
2019-06-08T21:39:32.064Z,15.40
2019-06-08T21:42:02.994Z,15.30
2019-06-08T21:44:32.409Z,15.30
2019-06-08T21:47:01.830Z,15.20
2019-06-08T21:49:31.225Z,15.20
2019-06-08T21:52:01.282Z,15.20
2019-06-08T21:54:30.972Z,15.20
2019-06-08T21:57:01.104Z,15.10
2019-06-08T21:59:30.778Z,15.10
2019-06-08T22:02:03.530Z,15.10
2019-06-08T22:04:32.305Z,15.00
2019-06-08T22:07:03.249Z,15.00
2019-06-08T22:09:32.651Z,15.00
2019-06-08T22:12:03.214Z,15.00
2019-06-08T22:14:32.872Z,14.90
2019-06-08T22:17:03.279Z,14.90
2019-06-08T22:19:32.961Z,14.90
2019-06-08T22:22:03.871Z,14.80
2019-06-08T22:24:33.476Z,14.80
2019-06-08T22:27:03.689Z,14.80
2019-06-08T22:29:33.540Z,14.70
2019-06-08T22:32:03.951Z,14.60
2019-06-08T22:34:33.979Z,14.60
2019-06-08T22:37:03.715Z,14.60
2019-06-08T22:39:33.402Z,14.50
2019-06-08T22:42:03.812Z,14.50
2019-06-08T22:44:34.747Z,14.40
2019-06-08T22:47:04.891Z,14.40
2019-06-08T22:49:34.342Z,14.40
2019-06-08T22:52:04.362Z,14.30
2019-06-08T22:54:33.737Z,14.30
2019-06-08T22:57:04.754Z,14.30
2019-06-08T22:59:34.379Z,14.20
2019-06-08T23:02:05.661Z,14.20
2019-06-08T23:04:34.727Z,14.20
2019-06-08T23:07:06.238Z,14.10
2019-06-08T23:09:37.314Z,14.10
2019-06-08T23:12:09.405Z,14.10
2019-06-08T23:14:38.584Z,14.10
2019-06-08T23:17:08.892Z,14.00
2019-06-08T23:19:38.540Z,14.00
2019-06-08T23:22:08.491Z,14.00
2019-06-08T23:24:38.379Z,13.90
2019-06-08T23:27:08.106Z,13.90
2019-06-08T23:29:38.196Z,13.80
2019-06-08T23:32:11.428Z,13.80
2019-06-08T23:34:38.625Z,13.70
2019-06-08T23:37:12.435Z,13.70
2019-06-08T23:39:39.247Z,13.60
2019-06-08T23:42:08.560Z,13.60
2019-06-08T23:44:40.173Z,13.50
2019-06-08T23:47:09.719Z,13.40
2019-06-08T23:49:39.247Z,13.40
2019-06-08T23:52:10.441Z,13.30
2019-06-08T23:54:40.445Z,13.30
2019-06-08T23:57:11.344Z,13.20
2019-06-08T23:59:41.038Z,13.10
